Time;durP1;ratioP1;P1;durP2;ratioP2;P2;SDS_P1;SDS_P2;PMS_P1;PMS_P2;Temp;Humidity;BMP_temperature;BMP_pressure;BME280_temperature;BME280_humidity;BME280_pressure;Samples;Min_cycle;Max_cycle;Signal;HPM_P1;HPM_P2
2022/10/14 00:00:32;;;;;;;18.47;0.50;;;;;;;13.53;96.49;100271.84;5004665;28;20476;-80
2022/10/14 00:02:58;;;;;;;5.80;0.30;;;;;;;13.50;96.27;100273.00;5004807;28;20460;-80
2022/10/14 00:05:25;;;;;;;14.97;0.40;;;;;;;13.52;96.51;100273.72;5004230;28;20498;-80
2022/10/14 00:07:52;;;;;;;16.03;0.50;;;;;;;13.53;96.46;100269.16;5004029;28;20547;-80
2022/10/14 00:10:19;;;;;;;1999.90;999.90;;;;;;;13.50;96.69;100262.25;5004227;28;20519;-80
2022/10/14 00:12:47;;;;;;;86.87;39.40;;;;;;;13.45;96.89;100267.25;5003803;28;20452;-80
2022/10/14 00:15:14;;;;;;;28.70;2.23;;;;;;;13.48;97.17;100264.25;5004490;28;20500;-80
2022/10/14 00:17:41;;;;;;;26.50;0.60;;;;;;;13.53;97.22;100261.94;5004534;28;20495;-78
2022/10/14 00:20:08;;;;;;;21.77;0.53;;;;;;;13.51;97.25;100265.81;5003763;28;20498;-79
2022/10/14 00:22:35;;;;;;;21.47;3.13;;;;;;;13.48;97.00;100258.91;5003228;28;20499;-79
2022/10/14 00:25:02;;;;;;;19.83;0.43;;;;;;;13.56;96.85;100267.00;5004586;28;20476;-79
2022/10/14 00:27:29;;;;;;;10.00;0.40;;;;;;;13.55;96.61;100264.47;5003510;28;20524;-79
2022/10/14 00:29:57;;;;;;;16.90;0.50;;;;;;;13.53;96.48;100256.56;5004610;28;20464;-78
2022/10/14 00:32:23;;;;;;;34.80;1.00;;;;;;;13.56;96.46;100255.44;5003483;28;20484;-79
2022/10/14 00:34:50;;;;;;;51.47;2.80;;;;;;;13.48;97.00;100263.44;5004471;28;20480;-82
2022/10/14 00:37:17;;;;;;;142.30;128.80;;;;;;;13.54;96.54;100258.28;5003852;28;20492;-83
2022/10/14 00:39:43;;;;;;;87.10;46.33;;;;;;;13.48;96.21;100253.53;5004206;28;20506;-82
2022/10/14 00:42:13;;;;;;;15.63;0.50;;;;;;;13.47;96.25;100256.38;5002763;28;20508;-81
2022/10/14 00:45:04;;;;;;;10.53;0.30;;;;;;;13.49;96.53;100257.06;5004028;28;20957;-82
2022/10/14 00:47:31;;;;;;;12.30;0.40;;;;;;;13.60;96.17;100261.31;5002927;28;20495;-81
2022/10/14 00:49:59;;;;;;;49.80;6.60;;;;;;;13.43;95.65;100255.84;5003528;28;20480;-81
2022/10/14 00:52:26;;;;;;;13.77;0.40;;;;;;;13.43;95.87;100249.63;5003051;28;20536;-81
2022/10/14 00:54:55;;;;;;;11.30;0.40;;;;;;;13.45;95.79;100253.00;5003980;28;20857;-81
2022/10/14 00:57:22;;;;;;;15.23;0.40;;;;;;;13.32;95.79;100248.91;5002878;28;20479;-81
2022/10/14 00:59:49;;;;;;;11.70;0.40;;;;;;;13.41;95.30;100251.66;5004322;28;20989;-81
2022/10/14 01:02:17;;;;;;;8.57;0.40;;;;;;;13.51;95.24;100247.00;5002655;28;20487;-82
2022/10/14 01:04:45;;;;;;;66.70;18.20;;;;;;;13.50;94.83;100239.94;5003465;28;20913;-80
2022/10/14 01:07:18;;;;;;;180.37;164.97;;;;;;;13.47;95.13;100251.00;5003243;28;20483;-80
2022/10/14 01:09:54;;;;;;;373.90;350.30;;;;;;;13.52;94.61;100241.47;5003521;28;20538;-79
2022/10/14 01:12:27;;;;;;;1368.17;681.50;;;;;;;13.46;94.79;100243.97;5002959;28;20518;-79
2022/10/14 01:14:58;;;;;;;16.63;0.40;;;;;;;13.47;94.91;100240.25;5003963;28;20848;-80
2022/10/14 01:17:35;;;;;;;17.87;0.50;;;;;;;13.48;94.72;100237.41;5003167;28;20463;-80
2022/10/14 01:20:22;;;;;;;17.77;0.40;;;;;;;13.48;94.65;100241.94;5002216;28;20523;-80
2022/10/14 01:22:58;;;;;;;25.40;0.50;;;;;;;13.37;94.59;100235.00;5003266;28;20471;-80
2022/10/14 01:25:29;;;;;;;25.70;0.50;;;;;;;13.46;94.20;100236.72;5003083;28;20482;-80
2022/10/14 01:28:07;;;;;;;16.73;0.40;;;;;;;13.34;94.18;100235.31;5002419;28;20530;-79
2022/10/14 01:30:39;;;;;;;17.50;0.50;;;;;;;13.37;93.97;100237.69;5003104;28;20499;-80
2022/10/14 01:33:10;;;;;;;16.70;0.40;;;;;;;13.27;93.93;100242.31;5002882;28;20460;-79
2022/10/14 01:35:48;;;;;;;17.03;0.50;;;;;;;13.40;94.16;100237.34;5003180;28;20491;-80
2022/10/14 01:38:19;;;;;;;17.87;0.47;;;;;;;13.28;94.29;100234.09;5003168;28;20472;-80
2022/10/14 01:40:52;;;;;;;18.37;0.50;;;;;;;13.29;94.52;100227.69;5002860;28;20495;-80
2022/10/14 01:43:21;;;;;;;18.40;0.40;;;;;;;13.36;93.88;100236.00;5002550;28;20530;-81
2022/10/14 01:45:50;;;;;;;17.23;0.40;;;;;;;13.33;94.02;100230.94;5002659;28;20471;-80
2022/10/14 01:48:18;;;;;;;18.53;0.50;;;;;;;13.19;94.37;100232.34;5002540;28;20531;-79
2022/10/14 01:50:47;;;;;;;18.17;0.40;;;;;;;13.16;94.69;100225.47;5002129;28;20511;-80
2022/10/14 01:53:15;;;;;;;17.47;0.50;;;;;;;13.19;94.57;100222.47;5002575;28;20472;-79
2022/10/14 01:55:44;;;;;;;17.50;0.40;;;;;;;13.19;95.08;100221.59;5002524;28;20555;-79
2022/10/14 01:58:12;;;;;;;17.70;0.50;;;;;;;13.20;95.18;100217.94;5002070;28;21187;-79
2022/10/14 02:00:39;;;;;;;18.37;0.40;;;;;;;13.29;94.76;100224.19;5002218;28;20476;-80
2022/10/14 02:03:07;;;;;;;17.53;0.40;;;;;;;13.29;94.03;100222.34;5002606;28;20494;-79
2022/10/14 02:05:41;;;;;;;17.13;0.50;;;;;;;13.30;94.08;100215.16;5002045;28;20496;-80
2022/10/14 02:08:11;;;;;;;16.77;0.40;;;;;;;13.25;93.89;100217.47;5001569;28;20548;-80
2022/10/14 02:10:46;;;;;;;17.20;0.40;;;;;;;13.23;94.06;100222.13;4997066;28;20472;-80
2022/10/14 02:13:24;;;;;;;19.33;0.43;;;;;;;13.22;94.59;100217.78;4982673;28;20944;-81
2022/10/14 02:16:01;;;;;;;19.17;0.50;;;;;;;13.15;94.66;100217.56;4983117;28;20536;-80
2022/10/14 02:18:34;;;;;;;18.07;0.50;;;;;;;13.25;94.39;100204.03;4993182;28;20483;-80
2022/10/14 02:21:05;;;;;;;18.17;0.50;;;;;;;13.23;94.34;100212.25;5002141;28;20511;-80
2022/10/14 02:23:33;;;;;;;18.53;0.40;;;;;;;13.23;94.29;100206.88;5002297;28;20917;-81
2022/10/14 02:26:01;;;;;;;17.53;0.40;;;;;;;13.24;94.04;100213.91;5002167;28;20510;-80
2022/10/14 02:28:29;;;;;;;17.50;0.40;;;;;;;13.33;93.79;100210.31;5001786;28;20491;-80
2022/10/14 02:30:58;;;;;;;17.73;0.40;;;;;;;13.29;93.15;100200.84;5005471;28;20503;-80
2022/10/14 02:33:34;;;;;;;17.50;0.50;;;;;;;13.25;93.33;100204.88;5005911;28;20495;-80
2022/10/14 02:36:01;;;;;;;18.97;0.50;;;;;;;13.24;93.63;100207.72;5006440;28;20535;-80
2022/10/14 02:38:28;;;;;;;19.90;0.50;;;;;;;13.23;93.89;100197.97;5006485;28;20443;-80
2022/10/14 02:40:55;;;;;;;20.57;0.40;;;;;;;13.22;93.64;100196.28;5005537;28;20979;-80
2022/10/14 02:43:22;;;;;;;20.50;0.50;;;;;;;13.15;94.24;100202.28;5005622;28;20511;-80
2022/10/14 02:45:48;;;;;;;18.53;0.50;;;;;;;13.12;94.36;100197.25;5006167;28;20479;-79
2022/10/14 02:48:15;;;;;;;19.53;0.50;;;;;;;13.18;94.47;100193.91;5005955;28;20507;-79
2022/10/14 02:50:43;;;;;;;19.03;0.50;;;;;;;13.12;94.76;100196.38;5005656;28;20503;-79
2022/10/14 02:53:13;;;;;;;20.47;0.50;;;;;;;13.23;94.64;100197.97;5006129;28;20539;-79
2022/10/14 02:55:39;;;;;;;18.87;0.50;;;;;;;13.17;94.64;100199.44;5005782;28;20498;-80
2022/10/14 02:58:06;;;;;;;18.27;0.43;;;;;;;13.19;94.57;100200.97;5005321;28;20456;-80
2022/10/14 03:00:33;;;;;;;18.20;0.50;;;;;;;13.18;94.61;100195.78;5005585;28;20478;-80
2022/10/14 03:02:59;;;;;;;17.57;0.40;;;;;;;13.24;94.28;100192.44;5005825;28;20487;-79
2022/10/14 03:05:26;;;;;;;16.47;0.50;;;;;;;13.24;93.89;100195.13;5005681;28;20491;-79
2022/10/14 03:07:54;;;;;;;20.20;0.47;;;;;;;13.23;93.88;100188.09;5005420;28;20518;-79
2022/10/14 03:10:22;;;;;;;20.43;0.50;;;;;;;13.42;93.76;100180.81;5005554;28;20476;-81
2022/10/14 03:12:49;;;;;;;18.07;0.50;;;;;;;13.24;93.80;100183.53;5004845;28;20483;-81
2022/10/14 03:15:16;;;;;;;20.00;0.50;;;;;;;13.23;93.91;100179.16;5005025;28;20490;-80
2022/10/14 03:17:42;;;;;;;20.17;0.50;;;;;;;13.31;93.63;100180.09;5005920;28;20516;-81
2022/10/14 03:20:10;;;;;;;20.33;0.50;;;;;;;13.18;93.51;100187.72;5004613;28;20491;-80
2022/10/14 03:22:37;;;;;;;22.17;0.50;;;;;;;13.25;93.18;100178.03;5005900;28;20583;-80
2022/10/14 03:25:06;;;;;;;16.07;0.50;;;;;;;13.21;93.86;100182.03;5005839;28;20506;-81
2022/10/14 03:27:32;;;;;;;20.70;0.50;;;;;;;13.22;93.67;100186.38;5004806;28;20902;-81
2022/10/14 03:29:59;;;;;;;20.83;0.50;;;;;;;13.23;94.18;100180.03;5005342;28;20507;-80
2022/10/14 03:32:25;;;;;;;18.90;0.40;;;;;;;13.17;93.80;100178.78;5004843;28;20555;-81
2022/10/14 03:34:52;;;;;;;21.33;0.60;;;;;;;13.24;93.77;100183.53;5005625;28;20451;-81
2022/10/14 03:37:19;;;;;;;21.73;0.50;;;;;;;13.28;93.06;100180.41;5004929;28;20546;-81
2022/10/14 03:39:45;;;;;;;22.67;0.47;;;;;;;13.24;92.94;100181.69;5005304;28;20441;-81
2022/10/14 03:42:13;;;;;;;20.63;0.50;;;;;;;13.17;93.27;100178.78;5003072;28;20559;-80
2022/10/14 03:44:40;;;;;;;22.70;0.50;;;;;;;13.10;93.18;100174.25;5005268;28;20487;-80
2022/10/14 03:47:06;;;;;;;20.57;0.50;;;;;;;13.08;93.33;100166.34;5004984;28;20546;-80
2022/10/14 03:49:33;;;;;;;17.07;0.50;;;;;;;13.14;93.17;100163.03;5004284;28;20929;-80
2022/10/14 03:52:00;;;;;;;21.37;0.50;;;;;;;13.23;92.79;100165.75;5004126;28;20488;-80
2022/10/14 03:54:26;;;;;;;26.23;0.50;;;;;;;13.22;92.20;100164.06;5005538;28;20456;-80
2022/10/14 03:56:53;;;;;;;22.00;0.50;;;;;;;13.13;92.12;100158.66;5004638;28;20607;-80
2022/10/14 03:59:21;;;;;;;20.33;0.50;;;;;;;13.26;91.81;100155.56;5005265;28;20502;-80
2022/10/14 04:01:47;;;;;;;18.77;0.50;;;;;;;13.12;92.05;100150.75;5004843;28;20484;-80
2022/10/14 04:04:16;;;;;;;20.77;0.50;;;;;;;13.13;92.53;100158.66;5004877;28;20494;-80
2022/10/14 04:06:43;;;;;;;20.77;0.50;;;;;;;13.21;92.20;100162.38;5004649;28;20479;-80
2022/10/14 04:09:10;;;;;;;20.57;0.50;;;;;;;13.14;92.23;100160.34;5005855;28;20468;-79
2022/10/14 04:11:36;;;;;;;22.13;0.57;;;;;;;13.10;92.44;100163.50;5004101;28;20567;-79
2022/10/14 04:14:03;;;;;;;20.60;0.50;;;;;;;13.09;92.51;100165.34;5005000;28;20869;-79
2022/10/14 04:16:31;;;;;;;22.40;0.60;;;;;;;13.16;92.28;100169.09;5004645;28;20496;-79
2022/10/14 04:18:58;;;;;;;21.57;0.50;;;;;;;13.26;91.93;100171.66;5003862;28;20472;-79
2022/10/14 04:21:25;;;;;;;21.63;0.50;;;;;;;13.23;91.58;100168.44;5009216;28;20472;-79
2022/10/14 04:23:51;;;;;;;21.50;0.47;;;;;;;13.19;91.88;100165.22;5002825;28;20459;-79
2022/10/14 04:26:18;;;;;;;21.17;0.50;;;;;;;13.16;91.86;100161.03;5004192;28;20490;-80
2022/10/14 04:28:45;;;;;;;20.23;0.40;;;;;;;13.17;91.95;100164.53;5003821;28;20515;-80
2022/10/14 04:31:11;;;;;;;24.57;0.60;;;;;;;13.19;92.20;100170.59;5003455;28;20515;-80
2022/10/14 04:33:39;;;;;;;22.97;0.50;;;;;;;13.27;92.38;100161.75;5003895;28;20471;-79
2022/10/14 04:36:08;;;;;;;18.00;0.50;;;;;;;13.16;92.41;100162.88;5004066;28;20503;-79
2022/10/14 04:38:34;;;;;;;17.30;0.40;;;;;;;13.20;92.30;100153.50;5003974;28;20460;-80
2022/10/14 04:41:01;;;;;;;15.77;0.40;;;;;;;13.29;91.81;100157.06;5003863;28;20502;-81
2022/10/14 04:43:28;;;;;;;15.47;0.40;;;;;;;13.19;91.72;100155.34;5003546;28;21033;-81
2022/10/14 04:45:54;;;;;;;15.97;0.50;;;;;;;13.18;92.33;100152.81;5003353;28;20510;-81
2022/10/14 04:48:21;;;;;;;16.27;0.40;;;;;;;13.15;92.43;100156.66;5003766;28;20472;-81
2022/10/14 04:50:51;;;;;;;17.87;0.70;;;;;;;13.21;92.38;100151.63;5003771;28;20589;-80
2022/10/14 04:53:18;;;;;;;66.83;51.77;;;;;;;13.20;92.06;100148.13;5001790;28;20476;-81
2022/10/14 04:55:45;;;;;;;7.17;0.30;;;;;;;13.19;91.96;100151.81;5003072;28;20510;-81
2022/10/14 04:58:12;;;;;;;35.37;0.70;;;;;;;13.15;92.05;100150.44;5002800;28;20896;-81
2022/10/14 05:00:39;;;;;;;54.27;10.30;;;;;;;13.16;92.04;100150.28;5002648;28;20501;-81
2022/10/14 05:03:05;;;;;;;43.90;3.90;;;;;;;13.12;92.21;100140.88;5002567;28;20452;-81
2022/10/14 05:05:32;;;;;;;9.97;0.40;;;;;;;13.11;92.33;100144.56;5001839;28;20481;-81
2022/10/14 05:08:00;;;;;;;6.93;0.30;;;;;;;13.11;92.49;100141.88;5002420;28;20490;-81
2022/10/14 05:10:27;;;;;;;7.27;0.30;;;;;;;13.16;92.20;100142.25;5002918;28;20508;-80
2022/10/14 05:12:54;;;;;;;6.07;0.30;;;;;;;13.09;92.60;100135.84;5002112;28;20607;-80
2022/10/14 05:15:21;;;;;;;5.63;0.30;;;;;;;13.18;92.52;100142.91;5001678;28;20451;-80
2022/10/14 05:17:47;;;;;;;6.60;0.30;;;;;;;13.11;92.62;100144.56;5002683;28;21004;-80
2022/10/14 05:20:14;;;;;;;6.30;0.30;;;;;;;13.09;92.81;100135.84;5002119;28;20432;-80
2022/10/14 05:22:41;;;;;;;7.30;0.30;;;;;;;13.07;93.18;100136.97;5002269;28;20492;-82
2022/10/14 05:25:12;;;;;;;5.50;0.30;;;;;;;13.04;93.50;100143.53;5002474;28;20464;-82
2022/10/14 05:27:39;;;;;;;4.20;0.20;;;;;;;13.10;93.52;100145.53;5002499;28;20464;-82
2022/10/14 05:30:06;;;;;;;6.27;0.30;;;;;;;13.11;93.29;100141.88;5002215;28;20993;-81
2022/10/14 05:32:33;;;;;;;5.37;0.30;;;;;;;13.13;93.27;100150.59;5002000;28;21004;-80
2022/10/14 05:35:00;;;;;;;6.20;0.30;;;;;;;13.05;93.62;100142.50;5003002;28;20495;-80
2022/10/14 05:37:26;;;;;;;6.20;0.30;;;;;;;13.08;93.44;100144.88;5001786;28;20515;-80
2022/10/14 05:39:54;;;;;;;6.80;0.30;;;;;;;13.15;93.44;100148.59;5002566;28;20455;-80
2022/10/14 05:42:22;;;;;;;7.70;0.40;;;;;;;13.07;93.34;100142.34;5001195;28;20511;-80
2022/10/14 05:44:48;;;;;;;7.63;0.30;;;;;;;13.01;93.62;100151.88;5002048;28;20432;-80
2022/10/14 05:47:15;;;;;;;7.60;0.30;;;;;;;13.10;93.47;100152.75;5002148;28;20518;-82
2022/10/14 05:49:42;;;;;;;8.40;0.30;;;;;;;13.12;93.15;100148.94;5001490;28;20572;-82
2022/10/14 05:52:08;;;;;;;7.77;0.40;;;;;;;13.12;93.18;100142.72;5001503;28;20468;-80
2022/10/14 05:54:35;;;;;;;5.60;0.30;;;;;;;12.99;93.67;100145.84;5003048;28;20475;-81
2022/10/14 05:57:02;;;;;;;6.23;0.33;;;;;;;13.14;92.87;100144.25;5001367;28;20488;-81
2022/10/14 05:59:32;;;;;;;8.70;0.30;;;;;;;13.15;92.96;100145.91;4982631;28;20433;-81
2022/10/14 06:01:58;;;;;;;6.70;0.30;;;;;;;13.10;93.05;100142.03;4982152;28;20497;-81
2022/10/14 06:04:25;;;;;;;5.97;0.30;;;;;;;13.19;93.09;100146.44;5001211;28;20484;-81
2022/10/14 06:06:52;;;;;;;6.27;0.30;;;;;;;13.16;92.98;100139.56;4987528;28;20480;-81
2022/10/14 06:09:19;;;;;;;9.50;0.30;;;;;;;13.07;93.79;100137.84;5002565;28;20475;-81
2022/10/14 06:11:45;;;;;;;7.60;0.30;;;;;;;13.14;93.85;100146.06;5000958;28;20567;-82
2022/10/14 06:14:12;;;;;;;14.87;0.40;;;;;;;13.16;93.86;100141.41;4993658;28;20541;-81
2022/10/14 06:16:42;;;;;;;12.10;0.50;;;;;;;13.11;94.40;100149.09;4987710;28;20514;-81
2022/10/14 06:19:08;;;;;;;11.70;0.30;;;;;;;13.14;94.27;100138.88;4999777;28;20854;-79
2022/10/14 06:21:35;;;;;;;11.93;0.40;;;;;;;13.18;94.40;100147.44;4999675;28;20495;-79
2022/10/14 06:24:01;;;;;;;12.90;0.50;;;;;;;13.17;94.75;100135.84;4997223;28;20515;-83
2022/10/14 06:26:28;;;;;;;12.60;0.40;;;;;;;13.21;94.95;100133.72;4998111;28;20476;-82
2022/10/14 06:28:55;;;;;;;16.97;0.50;;;;;;;13.58;95.08;100137.91;4997932;28;20487;-82
2022/10/14 06:31:21;;;;;;;13.63;0.40;;;;;;;13.65;94.41;100132.72;4999307;28;20480;-82
2022/10/14 06:33:49;;;;;;;13.77;0.40;;;;;;;13.73;94.20;100125.53;5000112;28;20462;-83
2022/10/14 06:36:16;;;;;;;13.17;0.40;;;;;;;13.82;93.38;100122.84;4998366;28;20491;-82
2022/10/14 06:38:43;;;;;;;16.30;0.40;;;;;;;13.67;93.57;100133.41;5001878;28;20447;-82
2022/10/14 06:41:10;;;;;;;13.93;0.40;;;;;;;13.70;93.10;100128.53;5001062;28;20519;-82
2022/10/14 06:43:36;;;;;;;13.07;0.40;;;;;;;13.58;93.57;100123.66;5000250;28;20465;-82
2022/10/14 06:46:04;;;;;;;14.07;0.40;;;;;;;13.63;93.99;100118.63;5001111;28;20929;-83
2022/10/14 06:48:31;;;;;;;12.73;0.40;;;;;;;13.64;94.00;100115.75;5001906;28;20455;-83
2022/10/14 06:51:00;;;;;;;13.13;0.40;;;;;;;13.71;94.03;100102.50;4999907;28;20472;-84
2022/10/14 06:53:27;;;;;;;14.03;0.40;;;;;;;13.71;93.68;100111.44;5000470;28;20486;-84
2022/10/14 06:55:58;;;;;;;14.43;0.40;;;;;;;13.74;94.18;100112.94;4998797;28;20475;-82
2022/10/14 06:58:25;;;;;;;14.67;0.40;;;;;;;13.90;93.29;100107.56;5000673;28;20460;-81
2022/10/14 07:00:51;;;;;;;14.97;0.50;;;;;;;13.85;93.03;100111.78;5000594;28;20483;-82
2022/10/14 07:03:18;;;;;;;15.40;0.40;;;;;;;13.88;93.08;100112.28;5000593;28;20459;-81
2022/10/14 07:05:45;;;;;;;11.67;0.40;;;;;;;13.98;93.01;100109.44;5000190;28;20484;-82
2022/10/14 07:08:13;;;;;;;14.80;0.40;;;;;;;14.08;92.77;100106.63;5001635;28;20491;-88
2022/10/14 07:10:40;;;;;;;15.30;0.40;;;;;;;14.05;92.35;100106.94;4987638;28;20472;-86
2022/10/14 07:13:07;;;;;;;15.13;0.50;;;;;;;13.93;92.44;100101.88;4999945;28;20504;-89
2022/10/14 07:15:34;;;;;;;16.03;0.50;;;;;;;14.01;92.36;100101.06;5000500;28;20480;-88
2022/10/14 07:18:00;;;;;;;14.63;0.50;;;;;;;13.93;92.60;100099.19;5004432;28;20455;-87
2022/10/14 07:20:27;;;;;;;14.87;0.40;;;;;;;14.04;91.78;100094.50;5002636;28;20499;-87
2022/10/14 07:22:55;;;;;;;15.27;0.40;;;;;;;14.03;92.22;100096.34;5003873;28;20486;-86
2022/10/14 07:25:23;;;;;;;14.87;0.40;;;;;;;14.19;91.53;100105.44;5004032;28;20448;-87
2022/10/14 07:27:51;;;;;;;16.43;0.40;;;;;;;14.47;91.11;100103.22;5003351;28;20976;-88
2022/10/14 07:30:18;;;;;;;15.47;0.40;;;;;;;14.74;89.35;100102.06;5003894;28;20528;-87
2022/10/14 07:32:44;;;;;;;16.33;0.40;;;;;;;14.97;88.08;100104.84;5004626;28;20460;-86
2022/10/14 07:35:11;;;;;;;15.67;0.50;;;;;;;15.11;86.26;100105.97;5002782;28;20582;-85
2022/10/14 07:37:38;;;;;;;19.73;0.50;;;;;;;15.17;85.24;100107.13;5005030;28;20464;-86
2022/10/14 07:40:05;;;;;;;18.60;0.50;;;;;;;15.25;84.76;100096.34;5003673;28;20475;-85
2022/10/14 07:42:34;;;;;;;18.17;0.50;;;;;;;15.17;85.56;100093.66;4992256;28;20464;-84
2022/10/14 07:45:01;;;;;;;18.00;0.43;;;;;;;15.06;85.90;100098.41;4998325;28;20484;-84
2022/10/14 07:47:28;;;;;;;17.50;0.40;;;;;;;14.96;85.95;100103.16;5004174;28;21031;-79
2022/10/14 07:49:55;;;;;;;18.57;0.50;;;;;;;14.99;86.09;100096.59;5003301;28;20440;-80
2022/10/14 07:52:21;;;;;;;15.40;0.40;;;;;;;14.99;85.74;100096.59;5003640;28;20480;-77
2022/10/14 07:54:48;;;;;;;17.27;0.50;;;;;;;15.36;84.71;100087.88;5004351;28;20503;-81
2022/10/14 07:57:15;;;;;;;17.53;0.40;;;;;;;15.52;83.43;100075.31;5002054;28;20554;-81
2022/10/14 07:59:43;;;;;;;18.80;0.50;;;;;;;15.48;82.88;100084.78;5004100;28;20467;-82
2022/10/14 08:02:10;;;;;;;17.47;0.50;;;;;;;15.20;83.03;100074.47;5004135;28;20538;-81
2022/10/14 08:04:37;;;;;;;18.40;0.40;;;;;;;15.61;82.26;100080.50;5004813;28;20444;-80
2022/10/14 08:07:04;;;;;;;13.40;0.40;;;;;;;16.11;82.21;100081.03;5003633;28;20488;-80
2022/10/14 08:09:31;;;;;;;18.20;0.40;;;;;;;16.30;78.88;100076.13;5003765;28;20483;-81
2022/10/14 08:11:57;;;;;;;419.60;339.47;;;;;;;15.99;78.54;100072.53;5002037;28;20475;-82
2022/10/14 08:14:24;;;;;;;546.97;488.10;;;;;;;17.18;76.14;100076.44;5004389;28;20973;-83
2022/10/14 08:16:55;;;;;;;34.70;0.60;;;;;;;18.12;71.23;100075.63;5003246;28;20480;-81
2022/10/14 08:19:22;;;;;;;59.53;25.40;;;;;;;18.86;66.70;100069.75;5003748;28;20459;-82
2022/10/14 08:21:48;;;;;;;112.80;101.60;;;;;;;18.41;68.58;100077.31;5003784;28;20495;-82
2022/10/14 08:24:15;;;;;;;5.13;0.20;;;;;;;18.83;68.15;100077.44;5004309;28;20440;-82
2022/10/14 08:26:49;;;;;;;19.10;0.40;;;;;;;19.57;64.07;100072.16;5003711;28;20487;-82
2022/10/14 08:29:16;;;;;;;18.10;0.40;;;;;;;18.60;66.41;100076.63;5004799;28;20510;-83
2022/10/14 08:31:43;;;;;;;23.30;0.40;;;;;;;19.33;64.34;100076.22;5004236;28;20518;-82
2022/10/14 08:34:11;;;;;;;25.50;0.50;;;;;;;19.73;63.01;100070.94;5005044;28;20470;-83
2022/10/14 08:36:38;;;;;;;23.17;0.50;;;;;;;19.41;62.85;100077.09;5004639;28;20492;-82
2022/10/14 08:39:05;;;;;;;14.30;8.83;;;;;;;18.25;66.90;100065.75;5005360;28;20484;-82
2022/10/14 08:41:52;;;;;;;223.37;205.10;;;;;;;17.31;71.28;100077.44;5003559;28;21020;-83
2022/10/14 08:44:21;;;;;;;1999.90;999.90;;;;;;;16.18;75.43;100076.59;5005182;28;20480;-83
2022/10/14 08:46:51;;;;;;;1999.90;999.90;;;;;;;15.86;77.59;100071.44;5004120;28;20490;-80
2022/10/14 08:49:23;;;;;;;1999.90;999.90;;;;;;;15.84;78.84;100077.00;5004775;28;20436;-80
2022/10/14 08:51:54;;;;;;;1999.90;999.90;;;;;;;15.68;79.61;100075.25;5003256;28;20483;-81
2022/10/14 08:54:28;;;;;;;1999.90;999.90;;;;;;;15.46;80.92;100073.34;5004150;28;20542;-81
2022/10/14 08:56:56;;;;;;;154.57;90.20;;;;;;;15.44;80.99;100073.53;5003615;28;20872;-82
2022/10/14 08:59:23;;;;;;;35.17;4.20;;;;;;;15.62;80.60;100070.53;5004109;28;20447;-82
2022/10/14 09:01:52;;;;;;;21.57;0.90;;;;;;;15.81;79.61;100074.66;5003343;28;20524;-82
2022/10/14 09:04:20;;;;;;;15.20;0.40;;;;;;;16.21;78.28;100069.97;5003520;28;20480;-82
2022/10/14 09:06:48;;;;;;;45.60;40.70;;;;;;;16.47;76.76;100072.25;5003026;28;20523;-82
2022/10/14 09:09:20;;;;;;;17.80;0.40;;;;;;;16.71;76.07;100065.78;5003925;28;20512;-82
2022/10/14 09:11:51;;;;;;;22.07;0.50;;;;;;;16.61;76.42;100067.09;5001968;28;20503;-82
2022/10/14 09:14:21;;;;;;;54.90;49.40;;;;;;;17.22;74.80;100066.91;5003436;28;20568;-82
2022/10/14 09:16:49;;;;;;;25.27;1.27;;;;;;;17.84;72.75;100060.97;5002547;28;20495;-82
2022/10/14 09:19:27;;;;;;;31.27;0.53;;;;;;;17.77;71.33;100051.13;5003146;28;21118;-82
2022/10/14 09:21:54;;;;;;;222.53;203.87;;;;;;;18.57;68.46;100046.41;5002725;28;20875;-82
2022/10/14 09:24:23;;;;;;;1999.90;999.90;;;;;;;18.94;65.63;100047.06;5003230;28;20467;-82
2022/10/14 09:26:52;;;;;;;1999.90;999.90;;;;;;;18.51;67.51;100044.50;5002499;28;20480;-83
2022/10/14 09:29:25;;;;;;;1999.90;999.90;;;;;;;18.50;67.81;100032.00;5003685;28;20437;-82
2022/10/14 09:31:53;;;;;;;50.27;14.07;;;;;;;18.10;67.91;100037.94;5002277;28;20574;-82
2022/10/14 09:34:28;;;;;;;6.77;6.07;;;;;;;17.64;69.53;100031.03;5003258;28;20935;-82
2022/10/14 09:36:58;;;;;;;6.20;5.60;;;;;;;17.59;71.42;100025.38;5002588;28;20554;-81
2022/10/14 09:39:25;;;;;;;5.50;4.77;;;;;;;17.75;71.24;100035.09;5002927;28;20452;-82
2022/10/14 09:41:53;;;;;;;6.30;5.70;;;;;;;17.20;72.83;100031.16;5001853;28;20614;-82
2022/10/14 09:44:22;;;;;;;5.30;4.80;;;;;;;17.37;72.23;100035.31;5003122;28;20489;-81
2022/10/14 09:46:52;;;;;;;6.43;5.23;;;;;;;17.04;73.01;100033.03;5002844;28;20476;-82
2022/10/14 09:49:22;;;;;;;7.27;6.57;;;;;;;16.93;73.62;100034.34;5003502;28;20436;-83
2022/10/14 09:51:51;;;;;;;5.93;5.43;;;;;;;16.99;74.28;100031.94;5001868;28;20533;-83
2022/10/14 09:54:25;;;;;;;8.13;6.57;;;;;;;17.46;72.69;100017.97;5003116;28;20448;-82
2022/10/14 09:57:03;;;;;;;9.20;5.83;;;;;;;17.49;72.67;99995.09;5002049;28;20507;-82
2022/10/14 09:59:30;;;;;;;6.90;6.30;;;;;;;17.60;70.77;99997.31;5000806;28;20431;-83
2022/10/14 10:01:59;;;;;;;7.20;6.10;;;;;;;18.19;69.37;100001.59;5001647;28;20475;-82
2022/10/14 10:04:34;;;;;;;5.90;5.17;;;;;;;18.20;69.52;100005.97;5002914;28;20467;-82
2022/10/14 10:07:05;;;;;;;6.87;5.17;;;;;;;20.17;63.72;100005.47;5001940;28;20505;-82
2022/10/14 10:09:32;;;;;;;5.77;5.17;;;;;;;21.18;59.18;100001.47;4993366;28;20536;-82
2022/10/14 10:11:59;;;;;;;4.77;4.33;;;;;;;22.42;54.48;99993.75;5001340;28;20511;-82
2022/10/14 10:14:28;;;;;;;4.37;3.97;;;;;;;22.71;52.87;99991.34;5002511;28;20489;-82
2022/10/14 10:17:13;;;;;;;4.70;3.80;;;;;;;21.41;55.57;99988.19;5001995;28;21042;-82
2022/10/14 10:19:41;;;;;;;4.53;4.13;;;;;;;19.66;60.79;99988.72;5002522;28;20449;-82
2022/10/14 10:22:25;;;;;;;4.63;4.20;;;;;;;18.69;65.30;99993.38;5001398;28;20991;-82
2022/10/14 10:25:10;;;;;;;4.67;3.83;;;;;;;18.21;67.86;99996.81;4983060;28;20487;-82
2022/10/14 10:27:39;;;;;;;4.50;3.47;;;;;;;17.76;69.50;99981.84;4984260;28;20494;-82
2022/10/14 10:30:22;;;;;;;3.83;3.40;;;;;;;17.21;72.11;99979.63;5002786;28;20806;-82
2022/10/14 10:32:56;;;;;;;4.73;3.40;;;;;;;17.13;72.36;99987.84;5002634;28;20460;-82
2022/10/14 10:35:27;;;;;;;5.97;3.37;;;;;;;17.04;72.85;99975.50;5001756;28;20444;-82
2022/10/14 10:38:05;;;;;;;4.67;3.33;;;;;;;17.14;73.01;99962.53;5002348;28;20444;-82
2022/10/14 10:40:35;;;;;;;4.87;3.90;;;;;;;17.70;70.88;99968.06;5001848;28;20463;-82
2022/10/14 10:43:23;;;;;;;4.23;3.67;;;;;;;18.34;68.40;99955.47;5001720;28;20470;-82
2022/10/14 10:46:08;;;;;;;4.37;3.97;;;;;;;18.80;66.57;99957.59;5001146;28;20468;-82
2022/10/14 10:48:40;;;;;;;4.20;3.73;;;;;;;18.87;65.77;99956.81;4998070;28;20464;-82
2022/10/14 10:51:10;;;;;;;3.50;3.20;;;;;;;19.93;62.73;99948.94;5003325;28;20507;-82
2022/10/14 10:53:44;;;;;;;5.10;3.23;;;;;;;20.39;59.35;99949.91;5006177;28;20453;-83
2022/10/14 10:56:17;;;;;;;4.07;3.67;;;;;;;19.45;62.21;99945.53;5005438;28;20486;-82
2022/10/14 10:59:07;;;;;;;4.43;3.17;;;;;;;19.66;62.67;99934.50;5006174;28;20464;-82
2022/10/14 11:01:40;;;;;;;5.30;2.90;;;;;;;19.32;63.73;99930.91;5004221;28;20496;-82
2022/10/14 11:04:18;;;;;;;4.30;3.47;;;;;;;18.58;66.19;99937.91;5006548;28;20465;-82
2022/10/14 11:12:30;;;;;;;4.53;3.70;;;;;;;17.69;70.08;99936.66;5005118;28;20688;-82
2022/10/14 11:15:13;;;;;;;4.80;2.90;;;;;;;18.01;69.65;99930.91;5006492;28;20459;-82
2022/10/14 11:17:48;;;;;;;3.17;2.87;;;;;;;18.07;69.53;99930.09;5005809;28;20490;-82
2022/10/14 11:20:22;;;;;;;3.60;3.03;;;;;;;17.72;70.13;99937.31;5005521;28;20481;-81
2022/10/14 11:22:56;;;;;;;3.40;2.83;;;;;;;17.74;70.51;99924.41;5005755;28;20451;-81
2022/10/14 11:25:31;;;;;;;3.30;3.00;;;;;;;17.71;70.04;99920.25;5005416;28;20460;-82
2022/10/14 11:28:04;;;;;;;2.37;2.00;;;;;;;17.91;70.50;99911.47;5005935;28;20463;-82
2022/10/14 11:30:42;;;;;;;4.23;1.83;;;;;;;17.77;71.06;99905.94;5005357;28;20518;-82
2022/10/14 11:33:22;;;;;;;2.50;2.17;;;;;;;17.53;70.26;99907.19;5005983;28;20452;-82